Time;durP1;ratioP1;P1;durP2;ratioP2;P2;SDS_P1;SDS_P2;PMS_P1;PMS_P2;Temp;Humidity;BMP_temperature;BMP_pressure;BME280_temperature;BME280_humidity;BME280_pressure;Samples;Min_cycle;Max_cycle;Signal;HPM_P1;HPM_P2
2022/05/27 00:02:11;;;;;;;7.03;2.38;;;17.90;69.70;;;;;;5032080;28;20065;-65
2022/05/27 00:04:37;;;;;;;6.88;2.10;;;17.90;69.90;;;;;;5013389;28;20040;-65
2022/05/27 00:07:03;;;;;;;6.13;2.20;;;17.90;69.90;;;;;;5019091;28;20033;-66
2022/05/27 00:09:29;;;;;;;8.88;2.90;;;17.90;70.00;;;;;;5039717;28;20063;-65
2022/05/27 00:11:55;;;;;;;7.32;2.72;;;17.90;70.00;;;;;;5037470;28;20438;-65
2022/05/27 00:14:21;;;;;;;7.82;2.75;;;17.90;70.10;;;;;;5033830;28;20332;-65
2022/05/27 00:16:46;;;;;;;8.93;3.70;;;17.80;70.00;;;;;;5035407;28;20071;-65
2022/05/27 00:19:12;;;;;;;10.43;4.05;;;17.90;70.10;;;;;;5019022;28;20034;-65
2022/05/27 00:21:37;;;;;;;8.95;3.28;;;17.90;70.10;;;;;;5027207;28;20086;-65
2022/05/27 00:24:03;;;;;;;8.43;2.63;;;17.90;70.10;;;;;;5035572;28;20424;-65
2022/05/27 00:26:29;;;;;;;13.88;2.97;;;17.90;70.20;;;;;;5043342;28;20033;-69
2022/05/27 00:28:55;;;;;;;8.73;2.78;;;17.90;70.30;;;;;;5033278;28;20030;-65
2022/05/27 00:31:20;;;;;;;9.20;2.80;;;17.90;70.40;;;;;;5033974;28;20041;-65
2022/05/27 00:33:47;;;;;;;7.45;2.50;;;17.90;70.70;;;;;;5017009;28;20040;-65
2022/05/27 00:36:14;;;;;;;9.27;2.75;;;17.80;70.80;;;;;;5026158;28;20044;-65
2022/05/27 00:38:40;;;;;;;8.57;3.20;;;17.80;71.00;;;;;;5044102;28;20021;-65
2022/05/27 00:41:07;;;;;;;8.90;3.03;;;17.80;71.20;;;;;;5047803;28;20083;-65
2022/05/27 00:43:33;;;;;;;7.13;2.83;;;17.80;71.50;;;;;;5033813;28;20080;-65
2022/05/27 00:46:27;;;;;;;8.32;2.90;;;17.70;71.80;;;;;;5033792;28;20052;-65
2022/05/27 00:48:56;;;;;;;9.10;3.08;;;17.70;72.20;;;;;;5038011;28;20047;-65
2022/05/27 00:51:26;;;;;;;11.20;3.60;;;17.70;72.40;;;;;;5033152;28;20037;-65
2022/05/27 00:54:12;;;;;;;7.68;2.30;;;17.70;73.00;;;;;;5034360;28;20044;-65
2022/05/27 00:56:40;;;;;;;6.40;3.03;;;17.60;73.40;;;;;;5035296;28;20442;-65
2022/05/27 00:59:13;;;;;;;6.50;2.38;;;17.50;73.60;;;;;;5035695;28;20442;-65
2022/05/27 01:01:39;;;;;;;7.28;2.22;;;17.50;74.00;;;;;;5032853;28;20079;-65
2022/05/27 01:04:07;;;;;;;6.13;2.03;;;17.40;74.30;;;;;;5033965;28;20445;-65
2022/05/27 01:06:32;;;;;;;6.00;1.95;;;17.30;74.50;;;;;;5033863;28;20061;-65
2022/05/27 01:08:58;;;;;;;5.00;1.80;;;17.30;74.70;;;;;;5034517;28;20053;-65
2022/05/27 01:11:51;;;;;;;7.38;1.92;;;17.30;74.90;;;;;;5034953;28;20029;-65
2022/05/27 01:14:48;;;;;;;6.75;2.13;;;17.30;75.20;;;;;;5034083;28;20108;-65
2022/05/27 01:17:25;;;;;;;4.78;1.85;;;17.20;75.30;;;;;;5038934;28;20358;-65
2022/05/27 01:20:19;;;;;;;7.13;2.08;;;17.10;75.40;;;;;;5035435;28;20052;-65
2022/05/27 01:23:03;;;;;;;6.43;1.92;;;17.10;75.60;;;;;;5028522;28;20034;-65
2022/05/27 01:26:10;;;;;;;9.00;1.90;;;17.10;75.70;;;;;;5035366;28;20465;-65
2022/05/27 01:29:18;;;;;;;4.63;1.77;;;17.00;75.80;;;;;;5013339;28;20049;-65
2022/05/27 01:31:48;;;;;;;5.00;1.55;;;17.00;76.10;;;;;;5011562;28;20116;-65
2022/05/27 01:34:47;;;;;;;5.67;1.67;;;16.90;76.10;;;;;;5013213;28;20042;-65
2022/05/27 01:37:28;;;;;;;4.72;1.90;;;16.90;76.20;;;;;;4996351;28;20037;-65
2022/05/27 01:40:08;;;;;;;5.53;1.77;;;16.90;76.40;;;;;;5014840;28;20033;-65
2022/05/27 01:42:57;;;;;;;5.60;2.08;;;16.90;76.60;;;;;;5017249;28;20120;-65
2022/05/27 01:45:36;;;;;;;6.18;2.25;;;16.80;76.70;;;;;;4999702;28;20048;-65
2022/05/27 01:48:10;;;;;;;6.70;2.13;;;16.80;76.70;;;;;;5016130;28;20037;-65
2022/05/27 01:50:54;;;;;;;6.00;1.98;;;16.80;76.80;;;;;;5015423;28;20030;-65
2022/05/27 01:53:40;;;;;;;5.70;2.10;;;16.80;76.80;;;;;;5021757;28;20115;-65
2022/05/27 01:56:26;;;;;;;3.72;1.80;;;16.90;77.00;;;;;;5014440;28;20036;-65
2022/05/27 01:59:02;;;;;;;6.63;1.92;;;16.80;77.00;;;;;;5015627;28;20394;-65
2022/05/27 02:01:32;;;;;;;5.28;2.20;;;16.80;76.90;;;;;;5015477;28;20044;-65
2022/05/27 02:04:33;;;;;;;5.38;2.17;;;16.80;77.10;;;;;;5000747;28;20041;-65
2022/05/27 02:07:03;;;;;;;5.85;2.05;;;16.80;77.10;;;;;;5016759;28;20038;-65
2022/05/27 02:09:35;;;;;;;7.05;2.00;;;16.80;77.30;;;;;;5030416;28;20443;-65
2022/05/27 02:12:08;;;;;;;6.28;2.55;;;16.80;77.30;;;;;;5031327;28;20041;-65
2022/05/27 02:14:40;;;;;;;5.63;2.40;;;16.80;77.30;;;;;;5047318;28;20032;-65
2022/05/27 02:17:15;;;;;;;8.00;2.53;;;16.80;77.50;;;;;;5034785;28;20021;-65
2022/05/27 02:19:54;;;;;;;7.47;2.28;;;16.80;77.50;;;;;;5036379;28;20034;-65
2022/05/27 02:22:28;;;;;;;6.22;2.30;;;16.80;77.50;;;;;;5063596;28;20025;-65
2022/05/27 02:25:01;;;;;;;8.02;2.45;;;16.80;77.60;;;;;;5037200;28;20050;-65
2022/05/27 02:27:34;;;;;;;5.35;2.17;;;16.80;77.70;;;;;;5036466;28;20029;-65
2022/05/27 02:30:06;;;;;;;8.63;2.65;;;16.80;77.70;;;;;;5036470;28;20033;-65
2022/05/27 02:32:39;;;;;;;6.63;2.58;;;16.80;77.70;;;;;;5049608;28;20465;-65
2022/05/27 02:35:15;;;;;;;5.38;2.25;;;16.80;77.80;;;;;;5043210;28;20013;-65
2022/05/27 02:37:47;;;;;;;6.95;2.40;;;16.80;77.80;;;;;;5021032;28;20024;-65
2022/05/27 02:40:18;;;;;;;8.27;2.80;;;16.80;77.80;;;;;;5040322;28;20025;-65
2022/05/27 02:42:58;;;;;;;7.40;2.72;;;16.70;77.70;;;;;;5035788;28;20041;-65
2022/05/27 02:45:41;;;;;;;6.35;2.45;;;16.80;77.80;;;;;;5037477;28;20098;-65
2022/05/27 02:48:26;;;;;;;7.00;2.38;;;16.70;77.70;;;;;;5036272;28;20029;-64
2022/05/27 02:51:04;;;;;;;6.90;2.78;;;16.70;77.90;;;;;;5027000;28;20033;-65
2022/05/27 02:54:08;;;;;;;7.45;2.80;;;16.70;78.00;;;;;;5025258;28;20029;-65
2022/05/27 02:57:10;;;;;;;7.53;2.85;;;16.70;78.00;;;;;;5032763;28;20425;-65
2022/05/27 02:59:37;;;;;;;11.75;3.10;;;16.70;77.90;;;;;;5034649;28;20030;-66
2022/05/27 03:02:12;;;;;;;10.65;3.03;;;16.70;77.80;;;;;;5051413;28;20051;-65
2022/05/27 03:04:46;;;;;;;6.72;2.67;;;16.70;77.90;;;;;;5036969;28;20059;-65
2022/05/27 03:07:24;;;;;;;7.45;2.72;;;16.60;77.90;;;;;;5037310;28;20017;-64
2022/05/27 03:09:54;;;;;;;10.77;2.90;;;16.60;78.00;;;;;;5035409;28;20025;-65
2022/05/27 03:12:49;;;;;;;8.13;2.78;;;16.60;78.00;;;;;;5052242;28;20065;-65
2022/05/27 03:15:40;;;;;;;8.02;3.30;;;16.60;78.00;;;;;;4994515;28;20034;-65
2022/05/27 03:18:08;;;;;;;10.20;3.17;;;16.60;78.80;;;;;;5011811;28;20033;-65
2022/05/27 03:21:02;;;;;;;10.25;3.75;;;16.60;78.20;;;;;;5015594;28;20289;-65
2022/05/27 03:23:47;;;;;;;8.32;3.13;;;16.60;78.20;;;;;;5030286;28;20133;-65
2022/05/27 03:26:32;;;;;;;8.38;3.35;;;16.60;78.20;;;;;;5013222;28;20145;-64
2022/05/27 03:29:16;;;;;;;7.82;3.22;;;16.60;78.40;;;;;;5015482;28;20022;-64
2022/05/27 03:31:54;;;;;;;8.52;3.00;;;16.60;78.40;;;;;;5024252;28;20367;-64
2022/05/27 03:34:25;;;;;;;9.50;3.47;;;16.60;78.40;;;;;;5030353;28;20373;-64
2022/05/27 03:37:04;;;;;;;8.48;3.38;;;16.60;78.40;;;;;;5017043;28;20450;-64
2022/05/27 03:40:02;;;;;;;8.48;3.40;;;16.60;78.30;;;;;;5015209;28;20033;-64
2022/05/27 03:42:29;;;;;;;8.68;3.53;;;16.60;78.40;;;;;;5008107;28;20043;-64
2022/05/27 03:45:01;;;;;;;8.02;2.90;;;16.60;78.30;;;;;;5027604;28;20064;-64
2022/05/27 03:47:27;;;;;;;8.95;3.28;;;16.60;78.40;;;;;;5016075;28;20050;-64
2022/05/27 03:49:53;;;;;;;10.75;2.92;;;16.50;78.30;;;;;;5021014;28;20382;-64
2022/05/27 03:52:22;;;;;;;10.38;3.67;;;16.50;78.30;;;;;;5048431;28;20076;-65
2022/05/27 03:54:48;;;;;;;10.07;3.45;;;16.50;78.30;;;;;;5042414;28;20113;-64
2022/05/27 03:57:14;;;;;;;8.50;2.88;;;16.50;78.20;;;;;;5040388;28;20113;-64
2022/05/27 03:59:39;;;;;;;9.15;2.90;;;16.50;78.20;;;;;;5038074;28;20495;-64
2022/05/27 04:02:05;;;;;;;8.82;2.90;;;16.50;78.20;;;;;;5035618;28;20075;-64
2022/05/27 04:04:31;;;;;;;7.57;2.70;;;16.50;78.00;;;;;;5033434;28;20442;-64
2022/05/27 04:06:57;;;;;;;10.07;2.80;;;16.40;78.00;;;;;;5038034;28;20028;-65
2022/05/27 04:09:24;;;;;;;8.32;2.75;;;16.40;77.90;;;;;;5040429;28;20040;-64
2022/05/27 04:11:51;;;;;;;8.93;2.50;;;16.40;77.90;;;;;;5035392;28;20142;-64
2022/05/27 04:14:16;;;;;;;10.18;2.97;;;16.40;77.90;;;;;;5033887;28;20022;-64
2022/05/27 04:16:42;;;;;;;7.65;2.42;;;16.40;77.90;;;;;;5033015;28;20048;-64
2022/05/27 04:19:09;;;;;;;6.85;2.20;;;16.40;77.90;;;;;;5047413;28;20052;-65
2022/05/27 04:21:36;;;;;;;6.10;2.22;;;16.40;77.90;;;;;;5038107;28;20118;-64
2022/05/27 04:24:01;;;;;;;7.20;2.33;;;16.40;77.80;;;;;;5038655;28;20328;-65
2022/05/27 04:26:27;;;;;;;6.97;2.42;;;16.40;77.70;;;;;;5033409;28;20033;-65
2022/05/27 04:28:53;;;;;;;8.57;2.63;;;16.40;77.60;;;;;;5032549;28;20042;-64
2022/05/27 04:31:18;;;;;;;7.68;2.58;;;16.40;77.60;;;;;;5035301;28;20088;-64
2022/05/27 04:33:44;;;;;;;7.60;2.70;;;16.40;77.60;;;;;;5034828;28;20028;-65
2022/05/27 04:36:11;;;;;;;9.15;2.60;;;16.40;77.50;;;;;;5032319;28;20030;-65
2022/05/27 04:38:38;;;;;;;8.40;2.70;;;16.50;77.50;;;;;;5032421;28;20018;-65
2022/05/27 04:41:04;;;;;;;8.60;2.67;;;16.50;77.50;;;;;;5031452;28;20033;-64
2022/05/27 04:43:30;;;;;;;8.80;3.05;;;16.50;77.40;;;;;;5033189;28;20037;-64
2022/05/27 04:45:56;;;;;;;6.70;2.08;;;16.50;77.40;;;;;;5026861;28;20156;-65
2022/05/27 04:48:21;;;;;;;6.03;2.33;;;16.50;77.30;;;;;;5035946;28;20038;-65
2022/05/27 04:50:47;;;;;;;9.80;2.58;;;16.50;77.10;;;;;;5031842;28;20033;-64
2022/05/27 04:53:13;;;;;;;7.70;2.35;;;16.50;77.10;;;;;;5033197;28;20124;-65
2022/05/27 04:55:40;;;;;;;10.20;3.13;;;16.50;77.10;;;;;;5029290;28;20400;-65
2022/05/27 04:58:07;;;;;;;6.72;2.30;;;16.50;77.00;;;;;;5013711;28;20021;-65
2022/05/27 05:00:45;;;;;;;9.50;2.63;;;16.60;77.00;;;;;;5032853;28;20029;-65
2022/05/27 05:03:12;;;;;;;8.95;2.78;;;16.60;77.00;;;;;;4995837;28;20314;-65
2022/05/27 05:05:39;;;;;;;9.98;4.63;;;16.60;77.00;;;;;;5017245;28;20038;-64
2022/05/27 05:08:29;;;;;;;9.20;3.50;;;16.60;76.90;;;;;;5015817;28;20109;-65
2022/05/27 05:10:55;;;;;;;10.73;3.92;;;16.70;76.80;;;;;;5016077;28;20458;-65
2022/05/27 05:13:20;;;;;;;8.45;3.08;;;16.90;76.50;;;;;;5014641;28;20450;-65
2022/05/27 05:15:46;;;;;;;11.02;2.85;;;17.10;75.90;;;;;;5033662;28;20050;-65
2022/05/27 05:18:12;;;;;;;7.57;2.55;;;17.20;75.60;;;;;;5020565;28;20447;-65
2022/05/27 05:20:37;;;;;;;6.85;2.60;;;17.20;75.60;;;;;;5023633;28;20108;-65
2022/05/27 05:23:03;;;;;;;9.70;2.65;;;17.30;75.60;;;;;;5028687;28;20083;-64
2022/05/27 05:25:29;;;;;;;8.60;2.60;;;17.40;75.70;;;;;;5032326;28;20037;-64
2022/05/27 05:27:55;;;;;;;10.13;2.95;;;17.50;75.60;;;;;;5032940;28;20026;-65
2022/05/27 05:30:23;;;;;;;8.63;2.55;;;17.70;75.20;;;;;;5017250;28;20466;-65
2022/05/27 05:32:49;;;;;;;7.18;2.45;;;17.80;74.80;;;;;;5040804;28;20061;-65
2022/05/27 05:35:16;;;;;;;7.78;3.15;;;17.90;74.50;;;;;;5016064;28;20044;-65
2022/05/27 05:37:42;;;;;;;10.13;2.70;;;18.00;74.30;;;;;;5017393;28;20034;-65
2022/05/27 05:40:09;;;;;;;8.07;3.20;;;18.10;74.10;;;;;;5023543;28;20486;-65
2022/05/27 05:42:36;;;;;;;10.70;3.42;;;18.10;73.90;;;;;;5016644;28;20531;-65
2022/05/27 05:45:02;;;;;;;6.93;2.45;;;18.10;73.80;;;;;;5017025;28;20455;-65
2022/05/27 05:47:27;;;;;;;9.10;3.10;;;18.10;73.80;;;;;;5018799;28;20042;-65
2022/05/27 05:49:53;;;;;;;8.70;2.67;;;18.20;73.60;;;;;;5021777;28;20044;-65
2022/05/27 05:52:19;;;;;;;10.73;2.97;;;18.20;73.50;;;;;;5023170;28;20041;-64
2022/05/27 05:54:44;;;;;;;10.35;3.15;;;18.30;73.30;;;;;;5028745;28;20101;-64
2022/05/27 05:57:10;;;;;;;9.32;2.80;;;18.20;73.20;;;;;;5027206;28;20131;-64
2022/05/27 05:59:38;;;;;;;9.18;2.90;;;18.20;73.30;;;;;;5027749;28;20069;-64
2022/05/27 06:02:06;;;;;;;8.43;2.72;;;18.30;73.30;;;;;;5026344;28;20108;-64
2022/05/27 06:04:32;;;;;;;11.93;2.78;;;18.30;73.30;;;;;;5028841;28;20030;-64
2022/05/27 06:06:58;;;;;;;9.20;3.67;;;18.40;73.10;;;;;;5028833;28;20120;-64
2022/05/27 06:09:25;;;;;;;8.15;3.00;;;18.40;72.80;;;;;;5043628;28;20026;-64
2022/05/27 06:11:56;;;;;;;6.93;2.45;;;18.50;72.70;;;;;;5024528;28;20029;-64
2022/05/27 06:14:22;;;;;;;6.47;2.27;;;18.60;72.60;;;;;;5030785;28;20451;-64
2022/05/27 06:16:47;;;;;;;8.43;2.55;;;18.70;72.40;;;;;;5050999;28;20021;-63
2022/05/27 06:19:13;;;;;;;9.73;3.00;;;18.70;72.20;;;;;;5048920;28;20117;-63
2022/05/27 06:21:39;;;;;;;5.88;2.25;;;18.70;72.00;;;;;;5047587;28;20048;-64
2022/05/27 06:24:05;;;;;;;10.60;2.70;;;18.60;71.70;;;;;;5049022;28;20446;-64
2022/05/27 06:26:31;;;;;;;8.32;2.80;;;18.70;71.60;;;;;;5030016;28;20033;-64
2022/05/27 06:34:29;;;;;;;9.70;2.70;;;18.60;70.90;;;;;;5034261;28;20045;-64
2022/05/27 06:37:02;;;;;;;7.72;2.45;;;18.50;71.10;;;;;;5035176;28;20037;-64
2022/05/27 06:39:29;;;;;;;8.60;2.42;;;18.50;71.10;;;;;;5033472;28;20026;-64
2022/05/27 06:41:55;;;;;;;6.45;2.22;;;18.40;71.00;;;;;;5035068;28;20083;-66
2022/05/27 06:44:30;;;;;;;6.50;2.67;;;18.40;70.90;;;;;;5046494;28;20116;-66
2022/05/27 06:46:56;;;;;;;7.32;2.33;;;18.30;70.60;;;;;;5014341;28;20105;-65
2022/05/27 06:49:22;;;;;;;10.05;2.55;;;18.30;70.40;;;;;;5034072;28;20059;-66
2022/05/27 06:51:48;;;;;;;9.63;2.38;;;18.30;70.20;;;;;;5036550;28;20124;-66
2022/05/27 06:54:15;;;;;;;7.75;2.45;;;18.40;69.90;;;;;;5033376;28;20021;-64
2022/05/27 06:56:43;;;;;;;5.78;2.10;;;18.50;69.10;;;;;;5032785;28;20063;-65
2022/05/27 06:59:10;;;;;;;8.80;2.67;;;18.60;67.90;;;;;;5032510;28;20033;-66
2022/05/27 07:01:36;;;;;;;6.15;1.63;;;18.80;67.30;;;;;;5035165;28;20045;-66
2022/05/27 07:04:03;;;;;;;10.07;2.33;;;18.90;67.10;;;;;;5035437;28;20416;-65
2022/05/27 07:06:37;;;;;;;7.93;1.88;;;18.90;66.80;;;;;;5017147;28;20063;-66
2022/05/27 07:09:06;;;;;;;13.57;2.65;;;18.90;66.60;;;;;;5029748;28;20033;-66
2022/05/27 07:11:33;;;;;;;7.95;2.10;;;18.70;66.30;;;;;;5031150;28;20072;-65
2022/05/27 07:13:59;;;;;;;7.50;2.05;;;18.60;66.10;;;;;;5029462;28;20152;-65
2022/05/27 07:16:26;;;;;;;7.20;2.25;;;18.70;65.60;;;;;;5031597;28;20480;-65
2022/05/27 07:18:53;;;;;;;8.02;2.00;;;18.90;64.90;;;;;;5028968;28;20127;-65
2022/05/27 07:21:19;;;;;;;14.93;2.85;;;19.30;64.70;;;;;;5034815;28;20053;-65
2022/05/27 07:23:45;;;;;;;9.02;2.40;;;19.30;63.30;;;;;;5033272;28;20057;-65
2022/05/27 07:26:11;;;;;;;8.93;2.10;;;19.40;62.60;;;;;;5027663;28;20037;-65
2022/05/27 07:28:36;;;;;;;7.45;1.80;;;19.50;62.20;;;;;;5030636;28;20029;-66
2022/05/27 07:31:02;;;;;;;7.55;1.90;;;19.40;61.80;;;;;;5013252;28;20061;-67
2022/05/27 07:33:29;;;;;;;7.20;2.15;;;19.60;61.10;;;;;;5032982;28;20108;-66
2022/05/27 07:35:55;;;;;;;6.63;2.10;;;19.70;60.10;;;;;;5028879;28;20025;-66
2022/05/27 07:38:21;;;;;;;5.82;1.73;;;19.90;59.30;;;;;;5030660;28;20033;-66
2022/05/27 07:40:46;;;;;;;9.32;2.25;;;20.00;58.60;;;;;;5031840;28;20021;-66
2022/05/27 07:43:12;;;;;;;7.43;2.05;;;20.20;57.70;;;;;;5031145;28;20038;-66
2022/05/27 07:45:40;;;;;;;7.55;2.20;;;20.20;56.70;;;;;;5029000;28;20029;-66
2022/05/27 07:48:06;;;;;;;10.20;2.53;;;20.30;56.20;;;;;;5025098;28;20054;-66
2022/05/27 07:50:32;;;;;;;8.40;1.92;;;20.20;55.60;;;;;;5031657;28;20086;-66
2022/05/27 07:52:58;;;;;;;7.68;2.05;;;20.00;55.70;;;;;;5033199;28;20030;-66
2022/05/27 07:55:24;;;;;;;11.07;2.47;;;20.00;55.40;;;;;;5031412;28;20124;-66
2022/05/27 07:57:50;;;;;;;11.65;3.00;;;20.10;55.40;;;;;;5032885;28;20026;-66
2022/05/27 08:00:28;;;;;;;11.52;2.63;;;20.20;54.50;;;;;;5031529;28;20481;-66
2022/05/27 08:02:54;;;;;;;8.48;2.30;;;20.20;54.10;;;;;;5032684;28;20078;-65
2022/05/27 08:05:23;;;;;;;7.70;2.10;;;20.10;54.20;;;;;;5029006;28;20037;-66
2022/05/27 08:07:49;;;;;;;9.93;2.25;;;20.10;54.20;;;;;;5044619;28;20029;-66
2022/05/27 08:10:17;;;;;;;8.20;2.17;;;20.20;54.00;;;;;;5027147;28;20418;-66
2022/05/27 08:12:44;;;;;;;11.43;2.67;;;20.40;53.50;;;;;;5022103;28;20064;-66
2022/05/27 08:15:10;;;;;;;8.43;2.28;;;20.50;52.90;;;;;;5032881;28;20030;-66
2022/05/27 08:17:37;;;;;;;10.48;2.55;;;20.60;52.60;;;;;;5029989;28;20070;-65
2022/05/27 08:20:04;;;;;;;8.23;2.50;;;20.80;52.40;;;;;;5028544;28;20029;-67
2022/05/27 08:22:30;;;;;;;10.60;2.35;;;21.10;52.20;;;;;;5027537;28;20045;-66
2022/05/27 08:24:56;;;;;;;6.78;2.30;;;21.30;52.00;;;;;;5047258;28;20114;-66
2022/05/27 08:27:21;;;;;;;7.70;1.90;;;21.50;51.70;;;;;;5030781;28;20607;-66
2022/05/27 08:29:47;;;;;;;11.25;2.50;;;21.60;51.10;;;;;;5028783;28;20121;-65
2022/05/27 08:32:13;;;;;;;8.27;2.17;;;21.60;50.70;;;;;;5031391;28;20049;-66
2022/05/27 08:40:33;;;;;;;7.15;1.92;;;21.10;51.20;;;;;;5029033;28;20061;-65
2022/05/27 08:43:05;;;;;;;9.10;2.08;;;20.70;51.50;;;;;;5037440;28;20125;-64
2022/05/27 08:45:47;;;;;;;11.85;2.55;;;20.70;52.00;;;;;;5017885;28;20378;-66
2022/05/27 08:48:14;;;;;;;8.82;2.30;;;20.50;51.90;;;;;;5023031;28;20046;-66
2022/05/27 08:50:51;;;;;;;14.52;2.70;;;20.30;52.00;;;;;;5022749;28;20450;-66
2022/05/27 08:53:34;;;;;;;8.57;2.53;;;20.20;52.70;;;;;;5018765;28;20117;-66
2022/05/27 08:59:26;;;;;;;7.78;2.15;;;20.00;51.30;;;;;;5036843;28;20025;-67
2022/05/27 09:01:56;;;;;;;11.27;2.70;;;20.20;50.40;;;;;;5034574;28;20056;-66
2022/05/27 09:04:28;;;;;;;8.95;2.47;;;20.50;50.00;;;;;;5047991;28;20028;-66
2022/05/27 09:07:06;;;;;;;9.00;2.38;;;20.80;49.40;;;;;;5035436;28;20445;-65
2022/05/27 09:09:33;;;;;;;8.15;1.88;;;20.80;49.00;;;;;;5033331;28;20372;-66
2022/05/27 09:12:40;;;;;;;11.02;2.53;;;20.90;49.30;;;;;;5035240;28;21577;-67
2022/05/27 09:15:33;;;;;;;6.53;2.17;;;21.10;48.60;;;;;;5024448;28;20105;-68
2022/05/27 09:18:11;;;;;;;9.05;2.40;;;21.10;48.20;;;;;;5022679;28;20335;-66
2022/05/27 09:21:15;;;;;;;8.98;2.20;;;21.30;48.00;;;;;;5020589;28;20025;-66
2022/05/27 09:24:18;;;;;;;9.60;1.88;;;21.50;47.10;;;;;;5007409;28;20355;-66
2022/05/27 09:27:00;;;;;;;10.55;2.40;;;21.80;46.50;;;;;;5024847;28;20045;-69
2022/05/27 09:29:35;;;;;;;8.02;2.20;;;22.00;46.90;;;;;;5027204;28;21513;-67
2022/05/27 09:32:08;;;;;;;6.22;2.03;;;22.20;46.10;;;;;;5027464;28;20052;-68
2022/05/27 09:34:38;;;;;;;7.30;2.33;;;22.30;45.60;;;;;;5028301;28;20083;-66
2022/05/27 09:37:07;;;;;;;7.60;2.03;;;22.30;45.60;;;;;;5048177;28;20021;-66
2022/05/27 09:39:33;;;;;;;9.25;2.03;;;22.00;45.80;;;;;;5034711;28;20417;-66
2022/05/27 09:42:26;;;;;;;11.38;2.97;;;22.10;46.00;;;;;;5036079;28;20037;-66
2022/05/27 09:44:56;;;;;;;9.18;2.40;;;22.10;44.90;;;;;;5035322;28;20042;-66
2022/05/27 09:47:25;;;;;;;9.27;2.60;;;22.30;44.90;;;;;;5034823;28;20032;-67
2022/05/27 09:50:18;;;;;;;7.90;2.08;;;22.40;44.70;;;;;;5033867;28;20075;-67
2022/05/27 09:52:45;;;;;;;7.90;2.20;;;22.60;43.80;;;;;;5035890;28;20441;-66
2022/05/27 09:55:23;;;;;;;6.45;2.17;;;22.70;43.60;;;;;;5034026;28;20049;-66
2022/05/27 09:58:03;;;;;;;10.00;2.65;;;22.70;43.10;;;;;;5032896;28;20025;-66
2022/05/27 10:00:45;;;;;;;7.18;2.17;;;22.50;43.30;;;;;;5033502;28;20025;-66
2022/05/27 10:03:19;;;;;;;9.25;2.60;;;22.40;43.40;;;;;;5032667;28;20021;-66
2022/05/27 10:06:00;;;;;;;7.68;2.38;;;22.00;43.40;;;;;;5035243;28;20506;-66
2022/05/27 10:08:35;;;;;;;10.50;2.22;;;21.90;43.50;;;;;;5032925;28;20026;-65
2022/05/27 10:11:23;;;;;;;8.93;2.67;;;21.90;43.60;;;;;;5031567;28;20064;-65
2022/05/27 10:14:42;;;;;;;7.85;1.90;;;21.70;43.90;;;;;;5032648;28;20116;-65
2022/05/27 10:17:09;;;;;;;9.55;2.42;;;21.70;44.00;;;;;;4993375;28;20042;-68
2022/05/27 10:19:41;;;;;;;8.23;2.55;;;21.60;44.00;;;;;;4976789;28;20122;-68
2022/05/27 10:22:20;;;;;;;;;;;21.70;43.50;;;;;;4989800;28;20129;-67
2022/05/27 10:25:03;;;;;;;8.30;2.22;;;21.90;43.70;;;;;;4993999;28;19961;-67
2022/05/27 10:27:51;;;;;;;9.30;2.22;;;22.10;43.60;;;;;;4991592;28;20076;-68
2022/05/27 10:30:57;;;;;;;9.68;2.83;;;22.50;43.10;;;;;;4992320;28;20145;-67
2022/05/27 10:33:36;;;;;;;6.70;2.20;;;22.80;42.40;;;;;;4977705;28;20058;-67
2022/05/27 10:36:02;;;;;;;9.30;2.40;;;23.10;42.20;;;;;;4991711;28;20035;-67
2022/05/27 10:38:53;;;;;;;8.23;2.50;;;23.20;41.60;;;;;;4999297;28;20046;-67
2022/05/27 10:41:27;;;;;;;6.85;2.22;;;23.00;41.00;;;;;;4996965;28;20038;-67
2022/05/27 10:44:07;;;;;;;8.80;2.50;;;22.60;41.80;;;;;;4964016;28;20037;-67
2022/05/27 10:46:38;;;;;;;8.68;2.42;;;22.40;41.50;;;;;;4999043;28;20041;-67
2022/05/27 10:49:28;;;;;;;7.90;2.00;;;22.50;41.70;;;;;;5001684;28;20486;-67
2022/05/27 10:52:11;;;;;;;8.80;2.70;;;22.70;41.30;;;;;;5034460;28;20070;-67
2022/05/27 10:54:51;;;;;;;8.68;2.38;;;22.80;40.90;;;;;;5040645;28;20330;-67
2022/05/27 11:03:44;;;;;;;7.75;2.50;;;22.60;40.70;;;;;;5039599;28;20112;-67
2022/05/27 11:06:38;;;;;;;8.60;2.60;;;22.50;40.80;;;;;;5038818;28;20148;-67
2022/05/27 11:09:15;;;;;;;10.32;2.80;;;22.20;41.30;;;;;;5034199;28;20040;-67
2022/05/27 11:11:53;;;;;;;9.23;2.30;;;22.10;40.80;;;;;;5030460;28;20033;-67
2022/05/27 11:17:48;;;;;;;6.35;2.13;;;22.20;40.00;;;;;;5039204;28;20037;-67
2022/05/27 11:20:33;;;;;;;8.07;2.47;;;22.30;40.20;;;;;;5043652;28;20037;-67
2022/05/27 11:23:33;;;;;;;8.05;2.28;;;22.30;39.80;;;;;;5032855;28;20035;-68
2022/05/27 11:26:33;;;;;;;9.48;2.33;;;22.30;39.80;;;;;;5033945;28;20699;-66
2022/05/27 11:29:25;;;;;;;7.90;2.45;;;22.20;40.10;;;;;;5041381;28;20378;-66
2022/05/27 11:32:08;;;;;;;7.15;1.88;;;22.20;40.30;;;;;;5030250;28;20183;-66
2022/05/27 11:34:48;;;;;;;8.25;2.00;;;22.20;39.70;;;;;;5048047;28;20032;-66
2022/05/27 11:37:20;;;;;;;8.10;2.15;;;22.30;39.60;;;;;;5046627;28;20447;-66
2022/05/27 11:40:07;;;;;;;9.05;2.33;;;22.20;39.30;;;;;;5039198;28;20037;-65
2022/05/27 11:43:11;;;;;;;9.10;2.40;;;22.30;39.20;;;;;;5042198;28;20120;-65
2022/05/27 11:45:57;;;;;;;7.78;2.47;;;22.20;39.30;;;;;;5033557;28;20087;-64
2022/05/27 11:48:47;;;;;;;7.55;2.22;;;22.20;39.40;;;;;;5032173;28;20041;-65
2022/05/27 11:51:39;;;;;;;9.60;2.50;;;22.10;39.50;;;;;;5032291;28;20060;-65
2022/05/27 11:54:34;;;;;;;9.93;2.72;;;22.00;39.50;;;;;;5034955;28;20040;-65
2022/05/27 11:57:02;;;;;;;9.60;2.00;;;21.90;40.30;;;;;;5029162;28;20112;-65
2022/05/27 11:59:42;;;;;;;8.27;2.42;;;21.90;40.10;;;;;;5034844;28;20088;-65
2022/05/27 12:02:35;;;;;;;9.18;2.20;;;21.80;40.40;;;;;;5025596;28;20126;-65
2022/05/27 12:05:10;;;;;;;10.10;2.03;;;21.80;40.50;;;;;;5037773;28;20030;-66
2022/05/27 12:07:48;;;;;;;8.57;2.65;;;22.00;40.70;;;;;;5035542;28;20095;-65
2022/05/27 12:10:25;;;;;;;10.30;2.58;;;21.90;41.40;;;;;;5024615;28;20362;-65
2022/05/27 12:13:20;;;;;;;9.18;2.97;;;21.80;41.00;;;;;;5023737;28;20427;-65
2022/05/27 12:15:54;;;;;;;11.40;2.30;;;21.60;40.90;;;;;;5020725;28;20076;-65
2022/05/27 12:18:34;;;;;;;9.70;2.50;;;21.70;41.20;;;;;;5023061;28;20022;-65
2022/05/27 12:21:05;;;;;;;9.05;2.47;;;21.60;41.30;;;;;;4992047;28;20121;-65
2022/05/27 12:23:35;;;;;;;11.50;3.00;;;21.40;41.40;;;;;;5008123;28;20025;-65
2022/05/27 12:26:01;;;;;;;6.53;2.22;;;21.30;41.50;;;;;;5008920;28;20378;-66
2022/05/27 12:28:30;;;;;;;6.97;2.17;;;21.10;41.60;;;;;;5020353;28;20121;-65
2022/05/27 12:30:59;;;;;;;8.93;2.22;;;21.00;42.00;;;;;;5022236;28;20128;-65
2022/05/27 12:33:28;;;;;;;8.85;2.22;;;21.00;42.90;;;;;;5022901;28;20480;-65
2022/05/27 12:36:01;;;;;;;8.73;2.45;;;21.00;42.20;;;;;;5021552;28;20022;-65
2022/05/27 12:38:48;;;;;;;7.97;2.20;;;21.10;42.10;;;;;;5025891;28;20027;-66
2022/05/27 12:41:35;;;;;;;9.70;2.35;;;21.00;42.30;;;;;;5019901;28;20462;-65
2022/05/27 12:44:25;;;;;;;9.32;2.60;;;21.10;42.30;;;;;;5018273;28;21102;-65
2022/05/27 12:46:54;;;;;;;7.72;2.25;;;21.10;42.50;;;;;;5016853;28;20113;-65
2022/05/27 12:49:27;;;;;;;9.60;2.50;;;21.10;42.20;;;;;;5021385;28;20076;-65
2022/05/27 12:51:54;;;;;;;8.05;1.98;;;21.10;41.60;;;;;;5007363;28;20323;-65
2022/05/27 12:54:43;;;;;;;8.10;2.22;;;21.10;41.70;;;;;;5020842;28;20501;-65
2022/05/27 13:03:42;;;;;;;8.75;2.45;;;21.30;40.90;;;;;;5013578;28;21989;-64
2022/05/27 13:06:17;;;;;;;10.25;2.38;;;21.20;41.00;;;;;;5021955;28;20106;-65
2022/05/27 13:08:52;;;;;;;9.27;2.60;;;21.10;41.10;;;;;;5019412;28;20052;-65
2022/05/27 13:11:24;;;;;;;9.70;2.17;;;20.90;41.30;;;;;;5019294;28;20032;-65
2022/05/27 13:13:52;;;;;;;6.30;1.90;;;21.00;41.20;;;;;;5022615;28;20060;-65
2022/05/27 13:16:24;;;;;;;10.70;2.35;;;21.00;41.20;;;;;;5021873;28;20117;-65
2022/05/27 13:18:58;;;;;;;9.27;2.08;;;21.00;41.20;;;;;;5018104;28;20110;-65
2022/05/27 13:21:47;;;;;;;8.43;2.00;;;20.80;41.10;;;;;;5019737;28;20041;-65
2022/05/27 13:24:13;;;;;;;7.22;1.63;;;20.70;41.20;;;;;;5004694;28;20033;-65
2022/05/27 13:26:45;;;;;;;8.32;2.15;;;20.70;41.10;;;;;;5021707;28;20032;-65
2022/05/27 13:29:39;;;;;;;10.18;2.00;;;20.60;41.20;;;;;;5039157;28;20176;-65
2022/05/27 13:32:15;;;;;;;5.65;1.80;;;20.60;41.00;;;;;;5018169;28;20267;-66
2022/05/27 13:34:58;;;;;;;7.78;2.17;;;20.50;41.10;;;;;;5024953;28;20128;-66
2022/05/27 13:37:39;;;;;;;9.80;2.65;;;20.60;41.40;;;;;;5039359;28;20036;-66
2022/05/27 13:40:13;;;;;;;8.73;2.55;;;20.60;41.40;;;;;;5031392;28;20486;-65
2022/05/27 13:42:51;;;;;;;8.27;2.22;;;20.50;41.50;;;;;;5029395;28;20033;-66
2022/05/27 13:45:31;;;;;;;9.23;2.20;;;20.50;41.50;;;;;;5030537;28;20035;-66
2022/05/27 13:48:10;;;;;;;9.57;2.35;;;20.40;41.60;;;;;;5028076;28;20175;-66
2022/05/27 13:50:39;;;;;;;10.95;2.00;;;20.40;41.80;;;;;;5025872;28;20167;-65
2022/05/27 13:53:26;;;;;;;8.60;1.95;;;20.30;41.90;;;;;;5030372;28;20109;-65